sensor_id;sensor_type;location;lat;lon;timestamp;P1;durP1;ratioP1;P2;durP2;ratioP2
5279;SDS011;2663;53.588;10.010;2023-10-13T00:00:34;14.93;;;3.80;;
5279;SDS011;2663;53.588;10.010;2023-10-13T00:03:03;8.23;;;2.73;;
5279;SDS011;2663;53.588;10.010;2023-10-13T00:05:32;7.40;;;4.00;;
5279;SDS011;2663;53.588;10.010;2023-10-13T00:08:00;11.63;;;3.03;;
5279;SDS011;2663;53.588;10.010;2023-10-13T00:10:29;14.20;;;4.20;;
5279;SDS011;2663;53.588;10.010;2023-10-13T00:12:56;14.47;;;3.33;;
5279;SDS011;2663;53.588;10.010;2023-10-13T00:15:42;17.77;;;2.77;;
5279;SDS011;2663;53.588;10.010;2023-10-13T00:18:23;18.90;;;3.63;;
5279;SDS011;2663;53.588;10.010;2023-10-13T00:20:59;11.83;;;4.10;;
5279;SDS011;2663;53.588;10.010;2023-10-13T00:23:27;16.87;;;3.27;;
5279;SDS011;2663;53.588;10.010;2023-10-13T00:25:54;20.63;;;4.07;;
5279;SDS011;2663;53.588;10.010;2023-10-13T00:28:25;13.90;;;4.20;;
5279;SDS011;2663;53.588;10.010;2023-10-13T00:30:53;23.13;;;4.60;;
5279;SDS011;2663;53.588;10.010;2023-10-13T00:33:27;19.27;;;4.90;;
5279;SDS011;2663;53.588;10.010;2023-10-13T00:35:55;17.97;;;5.00;;
5279;SDS011;2663;53.588;10.010;2023-10-13T00:38:24;14.10;;;5.00;;
5279;SDS011;2663;53.588;10.010;2023-10-13T00:40:53;22.63;;;5.87;;
5279;SDS011;2663;53.588;10.010;2023-10-13T00:43:21;21.33;;;6.43;;
5279;SDS011;2663;53.588;10.010;2023-10-13T00:45:52;17.90;;;4.53;;
5279;SDS011;2663;53.588;10.010;2023-10-13T00:48:22;20.20;;;5.40;;
5279;SDS011;2663;53.588;10.010;2023-10-13T00:51:03;28.37;;;8.33;;
5279;SDS011;2663;53.588;10.010;2023-10-13T00:53:34;14.77;;;6.00;;
5279;SDS011;2663;53.588;10.010;2023-10-13T00:56:07;18.87;;;7.17;;
5279;SDS011;2663;53.588;10.010;2023-10-13T00:58:34;24.53;;;6.30;;
5279;SDS011;2663;53.588;10.010;2023-10-13T01:01:02;27.87;;;9.77;;
5279;SDS011;2663;53.588;10.010;2023-10-13T01:03:45;21.83;;;7.93;;
5279;SDS011;2663;53.588;10.010;2023-10-13T01:06:17;64.07;;;25.93;;
5279;SDS011;2663;53.588;10.010;2023-10-13T01:08:46;47.30;;;21.07;;
5279;SDS011;2663;53.588;10.010;2023-10-13T01:11:20;21.30;;;6.33;;
5279;SDS011;2663;53.588;10.010;2023-10-13T01:13:50;28.43;;;7.53;;
5279;SDS011;2663;53.588;10.010;2023-10-13T01:16:20;27.23;;;9.80;;
5279;SDS011;2663;53.588;10.010;2023-10-13T01:18:53;35.57;;;7.27;;
5279;SDS011;2663;53.588;10.010;2023-10-13T01:21:26;23.97;;;7.93;;
5279;SDS011;2663;53.588;10.010;2023-10-13T01:23:54;25.83;;;7.70;;
5279;SDS011;2663;53.588;10.010;2023-10-13T01:26:20;27.57;;;7.77;;
5279;SDS011;2663;53.588;10.010;2023-10-13T01:28:50;21.43;;;7.77;;
5279;SDS011;2663;53.588;10.010;2023-10-13T01:31:20;22.63;;;8.93;;
5279;SDS011;2663;53.588;10.010;2023-10-13T01:33:56;27.67;;;9.60;;
5279;SDS011;2663;53.588;10.010;2023-10-13T01:36:26;31.93;;;8.60;;
5279;SDS011;2663;53.588;10.010;2023-10-13T01:38:54;35.30;;;8.43;;
5279;SDS011;2663;53.588;10.010;2023-10-13T01:41:21;30.83;;;8.50;;
5279;SDS011;2663;53.588;10.010;2023-10-13T01:43:48;21.53;;;7.97;;
5279;SDS011;2663;53.588;10.010;2023-10-13T01:46:15;25.03;;;10.20;;
5279;SDS011;2663;53.588;10.010;2023-10-13T01:48:45;35.07;;;11.83;;
5279;SDS011;2663;53.588;10.010;2023-10-13T01:51:12;27.70;;;11.67;;
5279;SDS011;2663;53.588;10.010;2023-10-13T01:53:40;31.63;;;10.77;;
5279;SDS011;2663;53.588;10.010;2023-10-13T01:56:10;27.83;;;10.80;;
5279;SDS011;2663;53.588;10.010;2023-10-13T01:58:37;23.60;;;9.80;;
5279;SDS011;2663;53.588;10.010;2023-10-13T02:01:08;36.93;;;10.50;;
5279;SDS011;2663;53.588;10.010;2023-10-13T02:03:36;34.20;;;11.53;;
5279;SDS011;2663;53.588;10.010;2023-10-13T02:06:14;27.47;;;10.03;;
5279;SDS011;2663;53.588;10.010;2023-10-13T02:08:50;37.73;;;10.40;;
5279;SDS011;2663;53.588;10.010;2023-10-13T02:11:23;27.00;;;10.53;;
5279;SDS011;2663;53.588;10.010;2023-10-13T02:13:50;33.13;;;10.57;;
5279;SDS011;2663;53.588;10.010;2023-10-13T02:16:17;31.13;;;10.10;;
5279;SDS011;2663;53.588;10.010;2023-10-13T02:18:48;37.53;;;10.20;;
5279;SDS011;2663;53.588;10.010;2023-10-13T02:21:18;20.97;;;10.23;;
5279;SDS011;2663;53.588;10.010;2023-10-13T02:23:45;42.17;;;12.53;;
5279;SDS011;2663;53.588;10.010;2023-10-13T02:26:12;31.97;;;11.67;;
5279;SDS011;2663;53.588;10.010;2023-10-13T02:28:53;41.77;;;11.80;;
5279;SDS011;2663;53.588;10.010;2023-10-13T02:31:23;37.37;;;11.23;;
5279;SDS011;2663;53.588;10.010;2023-10-13T02:33:50;32.87;;;13.03;;
5279;SDS011;2663;53.588;10.010;2023-10-13T02:36:17;36.23;;;11.43;;
5279;SDS011;2663;53.588;10.010;2023-10-13T02:38:49;34.93;;;12.70;;
5279;SDS011;2663;53.588;10.010;2023-10-13T02:41:18;37.23;;;13.00;;
5279;SDS011;2663;53.588;10.010;2023-10-13T02:43:52;34.20;;;12.23;;
5279;SDS011;2663;53.588;10.010;2023-10-13T02:46:20;36.40;;;13.10;;
5279;SDS011;2663;53.588;10.010;2023-10-13T02:48:56;32.20;;;12.07;;
5279;SDS011;2663;53.588;10.010;2023-10-13T02:51:25;53.17;;;13.50;;
5279;SDS011;2663;53.588;10.010;2023-10-13T02:53:57;43.00;;;12.03;;
5279;SDS011;2663;53.588;10.010;2023-10-13T02:56:29;39.13;;;12.07;;
5279;SDS011;2663;53.588;10.010;2023-10-13T02:58:55;28.40;;;11.47;;
5279;SDS011;2663;53.588;10.010;2023-10-13T03:01:23;38.10;;;13.40;;
5279;SDS011;2663;53.588;10.010;2023-10-13T03:03:56;37.20;;;13.00;;
5279;SDS011;2663;53.588;10.010;2023-10-13T03:06:25;37.60;;;12.90;;
5279;SDS011;2663;53.588;10.010;2023-10-13T03:09:02;29.00;;;12.53;;
5279;SDS011;2663;53.588;10.010;2023-10-13T03:11:48;35.63;;;14.40;;
5279;SDS011;2663;53.588;10.010;2023-10-13T03:14:19;37.57;;;13.80;;
5279;SDS011;2663;53.588;10.010;2023-10-13T03:19:21;34.07;;;14.90;;
5279;SDS011;2663;53.588;10.010;2023-10-13T03:21:49;37.70;;;15.47;;
5279;SDS011;2663;53.588;10.010;2023-10-13T03:24:23;36.90;;;14.63;;
5279;SDS011;2663;53.588;10.010;2023-10-13T03:27:00;45.50;;;17.20;;
5279;SDS011;2663;53.588;10.010;2023-10-13T03:29:38;36.63;;;15.83;;
5279;SDS011;2663;53.588;10.010;2023-10-13T03:32:11;39.97;;;15.80;;
5279;SDS011;2663;53.588;10.010;2023-10-13T03:34:41;30.60;;;15.50;;
5279;SDS011;2663;53.588;10.010;2023-10-13T03:37:27;39.60;;;16.63;;
5279;SDS011;2663;53.588;10.010;2023-10-13T03:40:11;37.97;;;15.30;;
5279;SDS011;2663;53.588;10.010;2023-10-13T03:42:48;34.23;;;15.60;;
5279;SDS011;2663;53.588;10.010;2023-10-13T03:45:32;28.80;;;14.33;;
5279;SDS011;2663;53.588;10.010;2023-10-13T03:48:38;31.87;;;16.70;;
5279;SDS011;2663;53.588;10.010;2023-10-13T03:51:01;39.87;;;13.90;;
5279;SDS011;2663;53.588;10.010;2023-10-13T03:53:37;22.97;;;11.97;;
5279;SDS011;2663;53.588;10.010;2023-10-13T03:56:21;24.20;;;11.60;;
5279;SDS011;2663;53.588;10.010;2023-10-13T03:58:56;26.97;;;13.80;;
5279;SDS011;2663;53.588;10.010;2023-10-13T04:01:27;26.10;;;12.70;;
5279;SDS011;2663;53.588;10.010;2023-10-13T04:04:13;22.83;;;11.80;;
5279;SDS011;2663;53.588;10.010;2023-10-13T04:06:42;22.97;;;11.87;;
5279;SDS011;2663;53.588;10.010;2023-10-13T04:09:18;19.20;;;12.07;;
5279;SDS011;2663;53.588;10.010;2023-10-13T04:11:59;26.70;;;12.37;;
5279;SDS011;2663;53.588;10.010;2023-10-13T04:14:30;19.30;;;12.20;;
5279;SDS011;2663;53.588;10.010;2023-10-13T04:17:17;22.57;;;11.40;;
5279;SDS011;2663;53.588;10.010;2023-10-13T04:19:55;23.10;;;13.83;;
5279;SDS011;2663;53.588;10.010;2023-10-13T04:25:12;25.97;;;14.03;;
5279;SDS011;2663;53.588;10.010;2023-10-13T04:28:05;24.70;;;13.00;;
5279;SDS011;2663;53.588;10.010;2023-10-13T04:31:00;17.47;;;11.80;;
5279;SDS011;2663;53.588;10.010;2023-10-13T04:33:38;21.60;;;13.13;;
5279;SDS011;2663;53.588;10.010;2023-10-13T04:36:18;19.33;;;13.67;;
5279;SDS011;2663;53.588;10.010;2023-10-13T04:38:48;30.20;;;14.60;;
5279;SDS011;2663;53.588;10.010;2023-10-13T04:41:35;19.83;;;13.30;;
5279;SDS011;2663;53.588;10.010;2023-10-13T04:46:48;26.30;;;14.30;;
5279;SDS011;2663;53.588;10.010;2023-10-13T04:49:16;23.93;;;14.10;;
5279;SDS011;2663;53.588;10.010;2023-10-13T04:51:58;30.67;;;14.87;;
5279;SDS011;2663;53.588;10.010;2023-10-13T04:54:27;21.87;;;14.60;;
5279;SDS011;2663;53.588;10.010;2023-10-13T04:57:00;29.90;;;15.60;;
5279;SDS011;2663;53.588;10.010;2023-10-13T04:59:46;27.40;;;16.03;;
5279;SDS011;2663;53.588;10.010;2023-10-13T05:02:43;29.90;;;16.10;;
5279;SDS011;2663;53.588;10.010;2023-10-13T05:05:26;30.27;;;17.83;;
5279;SDS011;2663;53.588;10.010;2023-10-13T05:08:11;36.93;;;19.60;;
5279;SDS011;2663;53.588;10.010;2023-10-13T05:10:57;33.30;;;17.53;;
5279;SDS011;2663;53.588;10.010;2023-10-13T05:13:47;33.10;;;18.70;;
5279;SDS011;2663;53.588;10.010;2023-10-13T05:16:32;30.60;;;18.43;;
5279;SDS011;2663;53.588;10.010;2023-10-13T05:19:18;30.47;;;20.20;;
5279;SDS011;2663;53.588;10.010;2023-10-13T05:22:03;46.33;;;22.67;;
5279;SDS011;2663;53.588;10.010;2023-10-13T05:24:49;47.10;;;20.73;;
5279;SDS011;2663;53.588;10.010;2023-10-13T05:27:34;45.23;;;23.27;;
5279;SDS011;2663;53.588;10.010;2023-10-13T05:30:19;46.27;;;25.10;;
5279;SDS011;2663;53.588;10.010;2023-10-13T05:33:05;41.13;;;26.47;;
5279;SDS011;2663;53.588;10.010;2023-10-13T05:35:50;51.03;;;25.73;;
5279;SDS011;2663;53.588;10.010;2023-10-13T05:38:36;43.97;;;26.27;;
5279;SDS011;2663;53.588;10.010;2023-10-13T05:41:21;48.03;;;27.13;;
5279;SDS011;2663;53.588;10.010;2023-10-13T05:44:07;54.03;;;29.37;;
5279;SDS011;2663;53.588;10.010;2023-10-13T05:46:52;55.77;;;29.57;;
5279;SDS011;2663;53.588;10.010;2023-10-13T05:49:38;46.00;;;27.53;;
5279;SDS011;2663;53.588;10.010;2023-10-13T05:52:19;45.80;;;29.83;;
5279;SDS011;2663;53.588;10.010;2023-10-13T05:55:06;44.07;;;27.10;;
5279;SDS011;2663;53.588;10.010;2023-10-13T05:57:51;54.93;;;30.60;;
5279;SDS011;2663;53.588;10.010;2023-10-13T06:00:38;66.30;;;31.10;;
5279;SDS011;2663;53.588;10.010;2023-10-13T06:03:24;57.57;;;29.07;;
5279;SDS011;2663;53.588;10.010;2023-10-13T06:06:10;44.10;;;26.57;;
5279;SDS011;2663;53.588;10.010;2023-10-13T06:08:55;46.37;;;28.37;;
5279;SDS011;2663;53.588;10.010;2023-10-13T06:11:40;50.47;;;29.20;;
5279;SDS011;2663;53.588;10.010;2023-10-13T06:14:26;47.70;;;27.40;;
5279;SDS011;2663;53.588;10.010;2023-10-13T06:17:11;52.70;;;29.37;;
5279;SDS011;2663;53.588;10.010;2023-10-13T06:19:57;49.93;;;28.13;;
5279;SDS011;2663;53.588;10.010;2023-10-13T06:22:42;49.67;;;27.80;;
5279;SDS011;2663;53.588;10.010;2023-10-13T06:25:31;39.63;;;26.77;;
5279;SDS011;2663;53.588;10.010;2023-10-13T06:28:16;51.50;;;29.67;;
5279;SDS011;2663;53.588;10.010;2023-10-13T06:31:03;42.30;;;27.97;;
5279;SDS011;2663;53.588;10.010;2023-10-13T06:33:34;50.30;;;29.20;;
5279;SDS011;2663;53.588;10.010;2023-10-13T06:36:04;51.83;;;28.50;;
5279;SDS011;2663;53.588;10.010;2023-10-13T06:38:36;46.73;;;28.63;;
5279;SDS011;2663;53.588;10.010;2023-10-13T06:41:03;45.70;;;28.27;;
5279;SDS011;2663;53.588;10.010;2023-10-13T06:43:35;51.43;;;32.20;;
5279;SDS011;2663;53.588;10.010;2023-10-13T06:46:09;46.03;;;30.10;;
5279;SDS011;2663;53.588;10.010;2023-10-13T06:48:49;46.83;;;29.77;;
5279;SDS011;2663;53.588;10.010;2023-10-13T06:51:19;55.43;;;29.73;;
5279;SDS011;2663;53.588;10.010;2023-10-13T06:53:51;47.63;;;29.70;;
5279;SDS011;2663;53.588;10.010;2023-10-13T06:56:22;50.57;;;31.90;;
5279;SDS011;2663;53.588;10.010;2023-10-13T06:58:54;59.60;;;29.87;;
5279;SDS011;2663;53.588;10.010;2023-10-13T07:01:30;47.33;;;29.50;;
5279;SDS011;2663;53.588;10.010;2023-10-13T07:04:08;54.13;;;32.50;;
5279;SDS011;2663;53.588;10.010;2023-10-13T07:06:43;49.73;;;34.23;;
5279;SDS011;2663;53.588;10.010;2023-10-13T07:09:17;48.17;;;31.00;;
5279;SDS011;2663;53.588;10.010;2023-10-13T07:12:03;49.63;;;31.40;;
5279;SDS011;2663;53.588;10.010;2023-10-13T07:14:46;56.77;;;30.37;;
5279;SDS011;2663;53.588;10.010;2023-10-13T07:17:19;57.43;;;33.80;;
5279;SDS011;2663;53.588;10.010;2023-10-13T07:19:53;49.70;;;32.33;;
5279;SDS011;2663;53.588;10.010;2023-10-13T07:22:22;50.77;;;34.10;;
5279;SDS011;2663;53.588;10.010;2023-10-13T07:24:50;50.07;;;32.90;;
5279;SDS011;2663;53.588;10.010;2023-10-13T07:27:17;55.00;;;36.60;;
5279;SDS011;2663;53.588;10.010;2023-10-13T07:29:51;50.23;;;33.23;;
5279;SDS011;2663;53.588;10.010;2023-10-13T07:32:24;65.90;;;35.87;;
5279;SDS011;2663;53.588;10.010;2023-10-13T07:34:53;59.33;;;34.70;;
5279;SDS011;2663;53.588;10.010;2023-10-13T07:37:22;60.47;;;33.70;;
5279;SDS011;2663;53.588;10.010;2023-10-13T07:39:54;59.87;;;34.30;;
5279;SDS011;2663;53.588;10.010;2023-10-13T07:42:27;51.33;;;32.67;;
5279;SDS011;2663;53.588;10.010;2023-10-13T07:45:06;54.70;;;33.03;;
5279;SDS011;2663;53.588;10.010;2023-10-13T07:47:34;54.90;;;34.47;;
5279;SDS011;2663;53.588;10.010;2023-10-13T07:50:00;49.10;;;30.00;;
5279;SDS011;2663;53.588;10.010;2023-10-13T07:52:28;54.23;;;32.80;;
5279;SDS011;2663;53.588;10.010;2023-10-13T07:55:07;47.70;;;30.70;;
5279;SDS011;2663;53.588;10.010;2023-10-13T07:57:40;51.53;;;33.80;;
5279;SDS011;2663;53.588;10.010;2023-10-13T08:00:21;43.57;;;29.87;;
5279;SDS011;2663;53.588;10.010;2023-10-13T08:03:07;42.07;;;29.17;;
5279;SDS011;2663;53.588;10.010;2023-10-13T08:05:51;46.33;;;29.23;;
5279;SDS011;2663;53.588;10.010;2023-10-13T08:08:39;38.07;;;27.83;;
5279;SDS011;2663;53.588;10.010;2023-10-13T08:11:07;31.20;;;25.33;;
5279;SDS011;2663;53.588;10.010;2023-10-13T08:13:52;39.73;;;26.47;;
5279;SDS011;2663;53.588;10.010;2023-10-13T08:16:38;34.40;;;21.40;;
5279;SDS011;2663;53.588;10.010;2023-10-13T08:19:12;28.37;;;20.73;;
5279;SDS011;2663;53.588;10.010;2023-10-13T08:21:45;31.67;;;23.17;;
5279;SDS011;2663;53.588;10.010;2023-10-13T08:24:18;38.20;;;22.30;;
5279;SDS011;2663;53.588;10.010;2023-10-13T08:26:52;29.23;;;19.50;;
5279;SDS011;2663;53.588;10.010;2023-10-13T08:29:37;27.93;;;20.70;;
5279;SDS011;2663;53.588;10.010;2023-10-13T08:32:26;30.60;;;20.63;;
5279;SDS011;2663;53.588;10.010;2023-10-13T08:34:55;24.70;;;19.00;;
5279;SDS011;2663;53.588;10.010;2023-10-13T08:37:35;28.40;;;21.33;;
5279;SDS011;2663;53.588;10.010;2023-10-13T08:40:18;29.50;;;20.97;;
5279;SDS011;2663;53.588;10.010;2023-10-13T08:43:10;28.23;;;19.37;;
5279;SDS011;2663;53.588;10.010;2023-10-13T08:45:38;29.77;;;20.57;;
5279;SDS011;2663;53.588;10.010;2023-10-13T08:48:07;26.63;;;19.43;;
5279;SDS011;2663;53.588;10.010;2023-10-13T08:50:39;19.57;;;15.50;;
5279;SDS011;2663;53.588;10.010;2023-10-13T08:55:58;21.90;;;16.03;;
5279;SDS011;2663;53.588;10.010;2023-10-13T08:58:42;20.20;;;15.27;;
5279;SDS011;2663;53.588;10.010;2023-10-13T09:01:32;20.83;;;14.70;;
5279;SDS011;2663;53.588;10.010;2023-10-13T09:04:16;22.70;;;15.07;;
5279;SDS011;2663;53.588;10.010;2023-10-13T09:06:57;13.43;;;11.97;;
5279;SDS011;2663;53.588;10.010;2023-10-13T09:09:29;14.80;;;10.57;;
5279;SDS011;2663;53.588;10.010;2023-10-13T09:12:15;15.40;;;11.03;;
5279;SDS011;2663;53.588;10.010;2023-10-13T09:14:55;17.47;;;9.60;;
5279;SDS011;2663;53.588;10.010;2023-10-13T09:17:25;11.50;;;8.83;;
5279;SDS011;2663;53.588;10.010;2023-10-13T09:19:59;12.93;;;8.87;;
5279;SDS011;2663;53.588;10.010;2023-10-13T09:22:46;12.43;;;9.00;;
5279;SDS011;2663;53.588;10.010;2023-10-13T09:25:32;11.30;;;7.73;;
5279;SDS011;2663;53.588;10.010;2023-10-13T09:28:20;10.37;;;7.20;;
5279;SDS011;2663;53.588;10.010;2023-10-13T09:30:53;12.20;;;8.10;;
5279;SDS011;2663;53.588;10.010;2023-10-13T09:33:23;10.87;;;7.73;;
5279;SDS011;2663;53.588;10.010;2023-10-13T09:35:55;14.60;;;7.70;;
5279;SDS011;2663;53.588;10.010;2023-10-13T09:38:28;10.93;;;7.10;;
5279;SDS011;2663;53.588;10.010;2023-10-13T09:40:55;13.50;;;7.50;;
5279;SDS011;2663;53.588;10.010;2023-10-13T09:43:24;16.83;;;7.50;;
5279;SDS011;2663;53.588;10.010;2023-10-13T09:45:51;14.23;;;6.17;;
5279;SDS011;2663;53.588;10.010;2023-10-13T09:48:33;10.07;;;7.30;;
5279;SDS011;2663;53.588;10.010;2023-10-13T09:51:02;16.83;;;6.67;;
5279;SDS011;2663;53.588;10.010;2023-10-13T09:53:33;10.43;;;6.60;;
5279;SDS011;2663;53.588;10.010;2023-10-13T09:56:06;19.10;;;7.07;;
5279;SDS011;2663;53.588;10.010;2023-10-13T09:58:50;9.27;;;6.67;;
5279;SDS011;2663;53.588;10.010;2023-10-13T10:01:27;27.47;;;6.20;;
5279;SDS011;2663;53.588;10.010;2023-10-13T10:04:08;12.80;;;6.80;;
5279;SDS011;2663;53.588;10.010;2023-10-13T10:06:58;11.13;;;5.97;;
5279;SDS011;2663;53.588;10.010;2023-10-13T10:12:21;10.33;;;5.93;;
5279;SDS011;2663;53.588;10.010;2023-10-13T10:18:01;14.97;;;6.80;;
5279;SDS011;2663;53.588;10.010;2023-10-13T10:20:32;23.17;;;6.53;;
5279;SDS011;2663;53.588;10.010;2023-10-13T10:23:23;9.50;;;5.30;;
5279;SDS011;2663;53.588;10.010;2023-10-13T10:25:56;17.57;;;6.33;;
5279;SDS011;2663;53.588;10.010;2023-10-13T10:28:37;12.87;;;5.90;;
5279;SDS011;2663;53.588;10.010;2023-10-13T10:31:05;14.53;;;5.70;;
5279;SDS011;2663;53.588;10.010;2023-10-13T10:33:39;13.90;;;6.40;;
5279;SDS011;2663;53.588;10.010;2023-10-13T10:36:06;13.23;;;5.50;;
5279;SDS011;2663;53.588;10.010;2023-10-13T10:38:53;24.73;;;7.17;;
5279;SDS011;2663;53.588;10.010;2023-10-13T10:41:26;15.03;;;6.40;;
5279;SDS011;2663;53.588;10.010;2023-10-13T10:44:11;16.33;;;6.60;;
5279;SDS011;2663;53.588;10.010;2023-10-13T10:46:43;13.30;;;6.07;;
5279;SDS011;2663;53.588;10.010;2023-10-13T10:49:27;9.13;;;5.93;;
5279;SDS011;2663;53.588;10.010;2023-10-13T10:51:58;21.23;;;5.93;;
5279;SDS011;2663;53.588;10.010;2023-10-13T10:54:27;22.63;;;6.23;;
5279;SDS011;2663;53.588;10.010;2023-10-13T10:57:00;15.87;;;6.83;;
5279;SDS011;2663;53.588;10.010;2023-10-13T10:59:45;10.87;;;6.90;;
5279;SDS011;2663;53.588;10.010;2023-10-13T11:02:12;14.57;;;6.13;;
5279;SDS011;2663;53.588;10.010;2023-10-13T11:04:50;14.30;;;7.20;;
5279;SDS011;2663;53.588;10.010;2023-10-13T11:07:21;18.83;;;6.90;;
5279;SDS011;2663;53.588;10.010;2023-10-13T11:09:49;24.17;;;7.60;;
5279;SDS011;2663;53.588;10.010;2023-10-13T11:12:19;13.47;;;7.10;;
5279;SDS011;2663;53.588;10.010;2023-10-13T11:14:59;14.73;;;6.70;;
5279;SDS011;2663;53.588;10.010;2023-10-13T11:17:49;12.83;;;6.70;;
5279;SDS011;2663;53.588;10.010;2023-10-13T11:20:25;10.77;;;6.20;;
5279;SDS011;2663;53.588;10.010;2023-10-13T11:22:52;8.67;;;6.37;;
5279;SDS011;2663;53.588;10.010;2023-10-13T11:25:20;13.87;;;6.83;;
5279;SDS011;2663;53.588;10.010;2023-10-13T11:27:49;21.33;;;8.30;;
5279;SDS011;2663;53.588;10.010;2023-10-13T11:30:16;17.33;;;7.90;;
5279;SDS011;2663;53.588;10.010;2023-10-13T11:32:59;22.63;;;7.87;;
5279;SDS011;2663;53.588;10.010;2023-10-13T11:35:32;13.20;;;6.20;;
5279;SDS011;2663;53.588;10.010;2023-10-13T11:38:15;19.13;;;7.43;;
5279;SDS011;2663;53.588;10.010;2023-10-13T11:40:52;20.10;;;7.30;;
5279;SDS011;2663;53.588;10.010;2023-10-13T11:43:34;16.87;;;6.10;;
5279;SDS011;2663;53.588;10.010;2023-10-13T11:46:09;24.63;;;7.23;;
5279;SDS011;2663;53.588;10.010;2023-10-13T11:48:36;13.70;;;6.20;;
5279;SDS011;2663;53.588;10.010;2023-10-13T11:51:04;28.40;;;7.37;;
5279;SDS011;2663;53.588;10.010;2023-10-13T11:53:50;10.77;;;5.23;;
5279;SDS011;2663;53.588;10.010;2023-10-13T11:56:22;12.63;;;6.40;;
5279;SDS011;2663;53.588;10.010;2023-10-13T11:58:48;11.50;;;6.20;;
5279;SDS011;2663;53.588;10.010;2023-10-13T12:01:15;26.77;;;7.30;;
5279;SDS011;2663;53.588;10.010;2023-10-13T12:03:46;21.43;;;6.80;;
5279;SDS011;2663;53.588;10.010;2023-10-13T12:06:34;19.80;;;6.47;;
5279;SDS011;2663;53.588;10.010;2023-10-13T12:11:38;15.63;;;4.57;;
5279;SDS011;2663;53.588;10.010;2023-10-13T12:14:10;14.63;;;5.50;;
5279;SDS011;2663;53.588;10.010;2023-10-13T12:16:43;16.30;;;6.13;;
5279;SDS011;2663;53.588;10.010;2023-10-13T12:19:20;13.00;;;5.20;;
5279;SDS011;2663;53.588;10.010;2023-10-13T12:21:51;12.60;;;5.23;;
5279;SDS011;2663;53.588;10.010;2023-10-13T12:24:22;14.63;;;5.77;;
5279;SDS011;2663;53.588;10.010;2023-10-13T12:27:02;15.17;;;4.43;;
5279;SDS011;2663;53.588;10.010;2023-10-13T12:29:48;18.17;;;6.23;;
5279;SDS011;2663;53.588;10.010;2023-10-13T12:32:18;15.57;;;4.67;;
5279;SDS011;2663;53.588;10.010;2023-10-13T12:34:57;11.90;;;5.07;;
5279;SDS011;2663;53.588;10.010;2023-10-13T12:37:30;18.53;;;6.20;;
5279;SDS011;2663;53.588;10.010;2023-10-13T12:40:12;10.00;;;4.90;;
5279;SDS011;2663;53.588;10.010;2023-10-13T12:43:01;14.87;;;5.83;;
5279;SDS011;2663;53.588;10.010;2023-10-13T12:45:47;13.20;;;4.90;;
5279;SDS011;2663;53.588;10.010;2023-10-13T12:48:34;13.33;;;5.00;;
5279;SDS011;2663;53.588;10.010;2023-10-13T12:51:21;14.00;;;4.70;;
5279;SDS011;2663;53.588;10.010;2023-10-13T12:53:51;22.10;;;6.77;;
5279;SDS011;2663;53.588;10.010;2023-10-13T12:56:20;15.90;;;5.10;;
5279;SDS011;2663;53.588;10.010;2023-10-13T12:58:52;13.30;;;5.90;;
5279;SDS011;2663;53.588;10.010;2023-10-13T13:01:21;21.17;;;5.10;;
5279;SDS011;2663;53.588;10.010;2023-10-13T13:03:49;15.83;;;5.33;;
5279;SDS011;2663;53.588;10.010;2023-10-13T13:06:17;12.13;;;5.13;;
5279;SDS011;2663;53.588;10.010;2023-10-13T13:08:54;20.47;;;5.80;;
5279;SDS011;2663;53.588;10.010;2023-10-13T13:11:27;15.60;;;4.70;;
5279;SDS011;2663;53.588;10.010;2023-10-13T13:13:57;21.60;;;6.73;;
5279;SDS011;2663;53.588;10.010;2023-10-13T13:16:24;16.60;;;5.73;;
5279;SDS011;2663;53.588;10.010;2023-10-13T13:18:51;18.70;;;6.23;;
5279;SDS011;2663;53.588;10.010;2023-10-13T13:21:21;20.47;;;5.57;;
5279;SDS011;2663;53.588;10.010;2023-10-13T13:23:50;12.70;;;5.37;;
5279;SDS011;2663;53.588;10.010;2023-10-13T13:26:21;13.03;;;5.37;;
5279;SDS011;2663;53.588;10.010;2023-10-13T13:28:49;16.03;;;5.27;;
5279;SDS011;2663;53.588;10.010;2023-10-13T13:31:17;22.33;;;5.60;;
5279;SDS011;2663;53.588;10.010;2023-10-13T13:33:44;21.70;;;7.60;;
5279;SDS011;2663;53.588;10.010;2023-10-13T13:36:11;14.63;;;6.27;;
5279;SDS011;2663;53.588;10.010;2023-10-13T13:38:43;18.67;;;5.77;;
5279;SDS011;2663;53.588;10.010;2023-10-13T13:41:15;17.60;;;6.00;;
5279;SDS011;2663;53.588;10.010;2023-10-13T13:43:47;24.17;;;6.47;;
5279;SDS011;2663;53.588;10.010;2023-10-13T13:46:22;15.80;;;5.47;;
5279;SDS011;2663;53.588;10.010;2023-10-13T13:48:59;17.57;;;5.87;;
5279;SDS011;2663;53.588;10.010;2023-10-13T13:51:32;25.00;;;6.23;;
5279;SDS011;2663;53.588;10.010;2023-10-13T13:54:01;19.17;;;7.07;;
5279;SDS011;2663;53.588;10.010;2023-10-13T13:56:30;17.23;;;6.27;;
5279;SDS011;2663;53.588;10.010;2023-10-13T13:59:04;15.20;;;6.17;;
5279;SDS011;2663;53.588;10.010;2023-10-13T14:01:35;15.10;;;4.67;;
5279;SDS011;2663;53.588;10.010;2023-10-13T14:04:03;19.57;;;5.90;;
5279;SDS011;2663;53.588;10.010;2023-10-13T14:06:33;20.43;;;5.90;;
5279;SDS011;2663;53.588;10.010;2023-10-13T14:09:01;13.70;;;5.50;;
5279;SDS011;2663;53.588;10.010;2023-10-13T14:11:40;23.83;;;5.83;;
5279;SDS011;2663;53.588;10.010;2023-10-13T14:14:26;21.53;;;6.23;;
5279;SDS011;2663;53.588;10.010;2023-10-13T14:16:53;10.90;;;5.73;;
5279;SDS011;2663;53.588;10.010;2023-10-13T14:19:28;16.67;;;6.10;;
5279;SDS011;2663;53.588;10.010;2023-10-13T14:21:56;20.90;;;6.17;;
5279;SDS011;2663;53.588;10.010;2023-10-13T14:24:24;28.93;;;7.33;;
5279;SDS011;2663;53.588;10.010;2023-10-13T14:26:55;16.10;;;6.07;;
5279;SDS011;2663;53.588;10.010;2023-10-13T14:29:23;20.53;;;5.57;;
5279;SDS011;2663;53.588;10.010;2023-10-13T14:31:53;17.53;;;6.03;;
5279;SDS011;2663;53.588;10.010;2023-10-13T14:34:20;21.30;;;5.47;;
5279;SDS011;2663;53.588;10.010;2023-10-13T14:36:48;18.80;;;5.17;;
5279;SDS011;2663;53.588;10.010;2023-10-13T14:39:15;25.23;;;6.87;;
5279;SDS011;2663;53.588;10.010;2023-10-13T14:41:41;21.47;;;6.23;;
5279;SDS011;2663;53.588;10.010;2023-10-13T14:44:08;23.30;;;6.70;;
5279;SDS011;2663;53.588;10.010;2023-10-13T14:46:35;23.13;;;6.17;;
5279;SDS011;2663;53.588;10.010;2023-10-13T14:49:02;19.30;;;7.30;;
5279;SDS011;2663;53.588;10.010;2023-10-13T14:51:29;23.67;;;6.40;;
5279;SDS011;2663;53.588;10.010;2023-10-13T14:53:56;18.00;;;6.27;;
5279;SDS011;2663;53.588;10.010;2023-10-13T14:56:22;19.93;;;6.73;;
5279;SDS011;2663;53.588;10.010;2023-10-13T14:58:53;20.63;;;6.37;;
5279;SDS011;2663;53.588;10.010;2023-10-13T15:01:21;18.43;;;6.67;;
5279;SDS011;2663;53.588;10.010;2023-10-13T15:03:51;20.50;;;7.40;;
5279;SDS011;2663;53.588;10.010;2023-10-13T15:06:25;20.30;;;7.20;;
5279;SDS011;2663;53.588;10.010;2023-10-13T15:08:58;25.40;;;6.70;;
5279;SDS011;2663;53.588;10.010;2023-10-13T15:11:26;26.27;;;6.53;;
5279;SDS011;2663;53.588;10.010;2023-10-13T15:13:54;25.03;;;7.80;;
5279;SDS011;2663;53.588;10.010;2023-10-13T15:16:23;17.20;;;6.33;;
5279;SDS011;2663;53.588;10.010;2023-10-13T15:18:51;18.00;;;6.30;;
5279;SDS011;2663;53.588;10.010;2023-10-13T15:21:19;20.87;;;6.87;;
5279;SDS011;2663;53.588;10.010;2023-10-13T15:23:53;20.50;;;7.27;;
5279;SDS011;2663;53.588;10.010;2023-10-13T15:26:24;21.83;;;5.50;;
5279;SDS011;2663;53.588;10.010;2023-10-13T15:28:51;25.00;;;7.00;;
5279;SDS011;2663;53.588;10.010;2023-10-13T15:31:22;17.97;;;6.17;;
5279;SDS011;2663;53.588;10.010;2023-10-13T15:33:53;14.80;;;7.00;;
5279;SDS011;2663;53.588;10.010;2023-10-13T15:36:21;22.87;;;7.17;;
5279;SDS011;2663;53.588;10.010;2023-10-13T15:38:52;19.13;;;7.73;;
5279;SDS011;2663;53.588;10.010;2023-10-13T15:41:23;32.00;;;7.87;;
5279;SDS011;2663;53.588;10.010;2023-10-13T15:43:53;15.00;;;6.83;;